F05

Wilbarger County Airport

Vernon, Texas, USA
METAR KF05 230915Z AUTO 35008KT 10SM CLR 10/08 A3011 RMK AO1 T00950077
Observed Flight Rules
Apr-23 @ 09:15 UTC (25 minutes ago) Visual Flight Rules
Wind Visibility Clouds
350° at 8 knots 10 miles
  • Clear skies
Temperatures Readings
Current 10°C / 50°F
Dewpoint 8°C / 46°F
Humidity 88%
Altimeter 30.11" Hg
Pressure 1020 hPa
Elevation 386
METAR KF05 230915Z AUTO 35008KT 10SM CLR 10/08 A3011 RMK AO1 T00950077
Observed Flight Rules
Apr-23 @ 09:15 UTC
(25 minutes ago)
VFR
Wind Visibility
350° at 8 knots 10 miles
Clouds
  • Clear skies
Temperature Dewpoint
10°C / 50°F 8°C / 46°F
Humidity Altimeter Pressure
88% 30.11" Hg 1020 hPa